Time;durP1;ratioP1;P1;durP2;ratioP2;P2;SDS_P1;SDS_P2;PMS_P1;PMS_P2;Temp;Humidity;BMP_temperature;BMP_pressure;BME280_temperature;BME280_humidity;BME280_pressure;Samples;Min_cycle;Max_cycle;Signal;HPM_P1;HPM_P2
2023/06/27 00:02:21;;;;;;;1.88;0.73;;;26.90;39.30;;;;;;5039951;28;20144;-66
2023/06/27 00:04:47;;;;;;;1.95;0.93;;;26.90;39.30;;;;;;5022267;28;20052;-65
2023/06/27 00:07:13;;;;;;;1.95;0.90;;;26.90;39.40;;;;;;5038849;28;20040;-66
2023/06/27 00:09:40;;;;;;;1.77;0.80;;;26.80;39.40;;;;;;5042244;28;20104;-64
2023/06/27 00:12:09;;;;;;;2.83;0.90;;;26.90;39.50;;;;;;5041699;28;20325;-63
2023/06/27 00:14:37;;;;;;;1.60;0.80;;;26.80;39.50;;;;;;5041920;28;20115;-64
2023/06/27 00:17:12;;;;;;;1.27;0.68;;;26.80;39.60;;;;;;5037858;28;20097;-64
2023/06/27 00:19:38;;;;;;;2.40;0.90;;;26.80;39.60;;;;;;5040664;28;20051;-65
2023/06/27 00:22:09;;;;;;;2.47;0.90;;;26.80;39.70;;;;;;5041788;28;20033;-64
2023/06/27 00:24:38;;;;;;;2.00;0.80;;;26.80;40.40;;;;;;5043554;28;20308;-64
2023/06/27 00:27:05;;;;;;;1.55;0.70;;;26.80;39.80;;;;;;5039005;28;20029;-65
2023/06/27 00:29:32;;;;;;;2.20;0.90;;;26.80;39.90;;;;;;5025479;28;20035;-65
2023/06/27 00:31:58;;;;;;;1.63;0.68;;;26.80;39.90;;;;;;5023681;28;20048;-64
2023/06/27 00:34:24;;;;;;;3.05;1.35;;;26.70;39.90;;;;;;5023033;28;20028;-64
2023/06/27 00:36:50;;;;;;;1.15;0.68;;;26.70;40.00;;;;;;5036561;28;20497;-65
2023/06/27 00:39:16;;;;;;;2.30;0.90;;;26.70;40.00;;;;;;5042274;28;20090;-65
2023/06/27 00:41:42;;;;;;;2.97;0.88;;;26.70;40.00;;;;;;5016368;28;20041;-64
2023/06/27 00:44:08;;;;;;;2.20;0.88;;;26.70;40.10;;;;;;5024986;28;20393;-64
2023/06/27 00:46:37;;;;;;;2.03;0.73;;;26.70;40.10;;;;;;5040620;28;20401;-64
2023/06/27 00:49:05;;;;;;;2.10;1.00;;;26.70;40.20;;;;;;5043024;28;20083;-64
2023/06/27 00:51:31;;;;;;;2.22;0.82;;;26.70;40.20;;;;;;5038984;28;20112;-64
2023/06/27 00:53:58;;;;;;;2.38;0.90;;;26.60;40.20;;;;;;5039166;28;20057;-63
2023/06/27 00:56:26;;;;;;;1.67;0.60;;;26.70;40.30;;;;;;5016912;28;20021;-64
2023/06/27 00:58:54;;;;;;;1.40;0.80;;;26.60;40.20;;;;;;5040063;28;20085;-65
2023/06/27 01:01:21;;;;;;;1.98;0.90;;;26.60;40.30;;;;;;5040960;28;20052;-65
2023/06/27 01:03:47;;;;;;;2.25;0.90;;;26.60;40.40;;;;;;5025623;28;21389;-66
2023/06/27 01:06:18;;;;;;;2.47;0.80;;;26.60;41.00;;;;;;5040563;28;20029;-64
2023/06/27 01:08:53;;;;;;;3.10;1.15;;;26.60;40.40;;;;;;5040865;28;20128;-65
2023/06/27 01:11:28;;;;;;;1.27;0.73;;;26.60;40.50;;;;;;5013370;28;20109;-66
2023/06/27 01:13:56;;;;;;;3.55;1.08;;;26.50;40.50;;;;;;5044218;28;20283;-64
2023/06/27 01:16:28;;;;;;;2.53;0.90;;;26.60;40.60;;;;;;5042236;28;20111;-64
2023/06/27 01:18:57;;;;;;;2.67;0.73;;;26.50;40.60;;;;;;5041601;28;20049;-64
2023/06/27 01:21:25;;;;;;;2.20;1.00;;;26.50;40.60;;;;;;5043378;28;20134;-64
2023/06/27 01:23:58;;;;;;;3.38;0.93;;;26.50;40.60;;;;;;5044589;28;20111;-64
2023/06/27 01:26:24;;;;;;;2.67;1.00;;;26.50;40.70;;;;;;5023592;28;20026;-65
2023/06/27 01:28:50;;;;;;;1.73;0.88;;;26.50;40.80;;;;;;5045338;28;20111;-64
2023/06/27 01:31:59;;;;;;;1.85;0.90;;;26.50;40.80;;;;;;5042970;28;20060;-65
2023/06/27 01:34:31;;;;;;;1.98;1.00;;;26.40;40.70;;;;;;5021503;28;20381;-66
2023/06/27 01:37:08;;;;;;;1.40;0.90;;;26.40;40.80;;;;;;5028211;28;20039;-64
2023/06/27 01:40:02;;;;;;;2.55;1.00;;;26.40;40.80;;;;;;5025674;28;20032;-64
2023/06/27 01:42:31;;;;;;;;;;;26.40;40.90;;;;;;5020765;28;20056;-62
2023/06/27 01:44:57;;;;;;;2.97;0.80;;;26.40;40.80;;;;;;5044259;28;19916;-63
2023/06/27 01:47:25;;;;;;;1.85;0.75;;;26.40;40.90;;;;;;5026851;28;20047;-64
2023/06/27 01:49:53;;;;;;;5.28;1.08;;;26.40;41.00;;;;;;5019470;28;20091;-64
2023/06/27 01:52:19;;;;;;;2.25;0.90;;;26.40;41.10;;;;;;5016142;28;20013;-65
2023/06/27 01:54:45;;;;;;;2.60;1.35;;;26.40;41.10;;;;;;5046188;28;20033;-64
2023/06/27 01:57:11;;;;;;;2.40;0.90;;;26.30;41.10;;;;;;5025088;28;20027;-64
2023/06/27 01:59:37;;;;;;;3.72;1.20;;;26.30;41.20;;;;;;5026769;28;20033;-64
2023/06/27 02:02:03;;;;;;;2.75;1.15;;;26.30;41.30;;;;;;5018044;28;20428;-65
2023/06/27 02:04:29;;;;;;;1.50;0.80;;;26.30;41.30;;;;;;5043664;28;20176;-64
2023/06/27 02:06:55;;;;;;;2.67;0.90;;;26.30;41.40;;;;;;5042152;28;20113;-64
2023/06/27 02:09:21;;;;;;;2.50;1.05;;;26.30;41.50;;;;;;5041796;28;20032;-64
2023/06/27 02:11:47;;;;;;;3.58;1.50;;;26.30;41.60;;;;;;5046250;28;21829;-63
2023/06/27 02:14:13;;;;;;;3.00;1.30;;;26.30;41.60;;;;;;5017161;28;20388;-65
2023/06/27 02:16:39;;;;;;;2.83;1.00;;;26.30;41.70;;;;;;5020347;28;20031;-64
2023/06/27 02:19:05;;;;;;;2.80;1.05;;;26.20;41.70;;;;;;5019508;28;20417;-64
2023/06/27 02:21:31;;;;;;;3.55;0.95;;;26.30;41.90;;;;;;5027353;28;20317;-64
2023/06/27 02:23:58;;;;;;;4.95;1.35;;;26.20;41.80;;;;;;5027137;28;20095;-64
2023/06/27 02:26:24;;;;;;;2.70;1.00;;;26.20;41.90;;;;;;5044344;28;20057;-64
2023/06/27 02:28:50;;;;;;;2.30;1.10;;;26.20;41.90;;;;;;5025926;28;20128;-64
2023/06/27 02:31:16;;;;;;;2.55;1.10;;;26.20;42.00;;;;;;5018982;28;20125;-63
2023/06/27 02:33:42;;;;;;;2.55;0.90;;;26.20;42.00;;;;;;5045764;28;20098;-64
2023/06/27 02:36:08;;;;;;;2.90;1.08;;;26.20;42.10;;;;;;5042546;28;20082;-64
2023/06/27 02:38:34;;;;;;;2.20;0.85;;;26.20;42.10;;;;;;5041035;28;20025;-64
2023/06/27 02:40:59;;;;;;;2.88;1.10;;;26.20;42.10;;;;;;5041905;28;20151;-64
2023/06/27 02:43:25;;;;;;;3.28;1.25;;;26.20;42.20;;;;;;5044775;28;20045;-64
2023/06/27 02:45:51;;;;;;;3.40;1.08;;;26.20;42.20;;;;;;5023933;28;20127;-64
2023/06/27 02:48:17;;;;;;;2.50;0.80;;;26.10;42.10;;;;;;5024893;28;20099;-65
2023/06/27 02:50:46;;;;;;;2.95;0.98;;;26.10;42.20;;;;;;5023667;28;20044;-64
2023/06/27 02:53:12;;;;;;;2.47;1.00;;;26.10;42.20;;;;;;5012944;28;20401;-64
2023/06/27 02:55:38;;;;;;;2.30;1.10;;;26.10;42.20;;;;;;5027732;28;20021;-65
2023/06/27 02:58:04;;;;;;;3.70;1.17;;;26.10;42.20;;;;;;5028835;28;20021;-64
2023/06/27 03:00:31;;;;;;;3.20;1.17;;;26.10;42.20;;;;;;5041936;28;20093;-66
2023/06/27 03:02:58;;;;;;;3.30;1.20;;;26.10;42.30;;;;;;5042332;28;20329;-64
2023/06/27 03:05:24;;;;;;;3.10;1.05;;;26.10;42.30;;;;;;5024482;28;20028;-64
2023/06/27 03:07:51;;;;;;;2.45;1.00;;;26.10;42.30;;;;;;5023327;28;20021;-65
2023/06/27 03:10:16;;;;;;;3.55;1.30;;;26.10;42.40;;;;;;5041144;28;20030;-63
2023/06/27 03:12:42;;;;;;;2.35;1.02;;;26.00;42.30;;;;;;5016271;28;20464;-63
2023/06/27 03:15:09;;;;;;;1.92;0.85;;;26.00;42.40;;;;;;5014308;28;20248;-63
2023/06/27 03:17:35;;;;;;;2.90;1.05;;;26.00;42.40;;;;;;5039140;28;20060;-63
2023/06/27 03:20:00;;;;;;;1.73;0.88;;;26.00;42.50;;;;;;5023825;28;20464;-63
2023/06/27 03:22:27;;;;;;;2.92;1.00;;;26.00;43.10;;;;;;5017892;28;20060;-63
2023/06/27 03:24:53;;;;;;;2.15;1.05;;;26.00;42.50;;;;;;5022170;28;20118;-65
2023/06/27 03:27:23;;;;;;;4.85;1.30;;;26.00;43.20;;;;;;5021978;28;20029;-62
2023/06/27 03:29:51;;;;;;;3.45;1.17;;;26.00;42.60;;;;;;5022365;28;20029;-64
2023/06/27 03:32:17;;;;;;;2.30;1.20;;;26.00;42.60;;;;;;5019510;28;20044;-63
2023/06/27 03:34:43;;;;;;;2.33;1.20;;;26.00;42.70;;;;;;5040647;28;20351;-63
2023/06/27 03:37:10;;;;;;;4.95;1.42;;;26.00;42.70;;;;;;5018983;28;20089;-63
2023/06/27 03:39:36;;;;;;;3.85;1.30;;;25.90;42.70;;;;;;5018365;28;20033;-63
2023/06/27 03:42:02;;;;;;;2.65;0.93;;;25.90;42.70;;;;;;5017866;28;20098;-63
2023/06/27 03:44:28;;;;;;;2.38;1.10;;;25.90;42.80;;;;;;5040446;28;20426;-63
2023/06/27 03:46:54;;;;;;;2.03;1.10;;;25.90;42.80;;;;;;5039798;28;20095;-64
2023/06/27 03:49:22;;;;;;;2.92;1.13;;;25.90;42.80;;;;;;5023555;28;20070;-64
2023/06/27 03:51:48;;;;;;;3.67;1.20;;;25.90;42.80;;;;;;5017752;28;20048;-64
2023/06/27 03:54:14;;;;;;;2.78;1.17;;;25.90;42.90;;;;;;5017650;28;20086;-64
2023/06/27 03:56:40;;;;;;;2.78;1.20;;;25.90;42.90;;;;;;5039694;28;20337;-63
2023/06/27 03:59:06;;;;;;;3.72;1.20;;;25.90;43.00;;;;;;5025165;28;20032;-64
2023/06/27 04:01:32;;;;;;;3.03;1.17;;;25.90;43.10;;;;;;5008318;28;20101;-63
2023/06/27 04:03:59;;;;;;;3.90;1.17;;;25.80;43.00;;;;;;5021876;28;20055;-63
2023/06/27 04:06:25;;;;;;;2.95;1.50;;;25.90;43.20;;;;;;5014818;28;20029;-64
2023/06/27 04:08:50;;;;;;;4.68;1.50;;;25.80;43.10;;;;;;5039632;28;20084;-63
2023/06/27 04:11:17;;;;;;;2.90;1.20;;;25.90;43.90;;;;;;5021701;28;20125;-64
2023/06/27 04:13:42;;;;;;;4.00;1.23;;;25.80;43.30;;;;;;5039816;28;20037;-64
2023/06/27 04:16:11;;;;;;;3.03;1.10;;;25.80;43.30;;;;;;5014778;28;21614;-64
2023/06/27 04:18:36;;;;;;;2.35;1.08;;;25.80;43.30;;;;;;5035125;28;20120;-63
2023/06/27 04:21:02;;;;;;;3.53;1.10;;;25.80;43.40;;;;;;5021177;28;20086;-63
2023/06/27 04:23:28;;;;;;;2.92;1.58;;;25.80;43.50;;;;;;5015612;28;20059;-64
2023/06/27 04:26:07;;;;;;;1.88;0.93;;;25.80;43.50;;;;;;5023419;28;20029;-63
2023/06/27 04:28:35;;;;;;;3.47;1.27;;;25.80;43.60;;;;;;5024027;28;20437;-63
2023/06/27 04:31:01;;;;;;;4.05;1.27;;;25.80;43.60;;;;;;5040952;28;20317;-63
2023/06/27 04:33:28;;;;;;;5.70;1.20;;;25.80;43.70;;;;;;5039853;28;20084;-63
2023/06/27 04:36:00;;;;;;;4.07;1.33;;;25.80;43.70;;;;;;5041359;28;20026;-63
2023/06/27 04:38:48;;;;;;;4.15;1.20;;;25.80;43.80;;;;;;5022333;28;20037;-63
2023/06/27 04:41:15;;;;;;;3.72;1.30;;;25.80;43.90;;;;;;5040137;28;20461;-64
2023/06/27 04:43:42;;;;;;;2.85;1.27;;;25.80;43.90;;;;;;5018969;28;20433;-63
2023/06/27 04:46:08;;;;;;;3.85;1.70;;;25.80;44.00;;;;;;5020869;28;20064;-63
2023/06/27 04:48:37;;;;;;;5.22;1.35;;;25.80;44.00;;;;;;5021542;28;20029;-63
2023/06/27 04:51:03;;;;;;;4.45;1.40;;;25.80;44.10;;;;;;5023120;28;20038;-63
2023/06/27 04:53:30;;;;;;;6.38;1.25;;;25.70;44.00;;;;;;5024967;28;20041;-64
2023/06/27 04:55:56;;;;;;;3.47;1.45;;;25.70;44.10;;;;;;5026507;28;20408;-63
2023/06/27 04:58:22;;;;;;;4.03;1.20;;;25.70;44.10;;;;;;5024026;28;20125;-63
2023/06/27 05:00:48;;;;;;;2.80;1.23;;;25.70;44.20;;;;;;5024618;28;20045;-64
2023/06/27 05:03:14;;;;;;;2.97;1.20;;;25.70;44.20;;;;;;5023424;28;20033;-64
2023/06/27 05:05:41;;;;;;;4.95;1.60;;;25.70;44.20;;;;;;5024893;28;20125;-63
2023/06/27 05:08:07;;;;;;;3.95;1.38;;;25.70;44.20;;;;;;5018947;28;20360;-63
2023/06/27 05:10:33;;;;;;;3.22;1.30;;;25.70;44.30;;;;;;5025060;28;20112;-64
2023/06/27 05:13:00;;;;;;;5.32;1.58;;;25.70;44.30;;;;;;5023171;28;21623;-63
2023/06/27 05:15:26;;;;;;;4.90;1.33;;;25.70;44.30;;;;;;5024365;28;20414;-64
2023/06/27 05:17:54;;;;;;;4.70;1.98;;;25.60;44.30;;;;;;5022613;28;20437;-64
2023/06/27 05:20:20;;;;;;;3.75;1.48;;;25.70;44.50;;;;;;5022786;28;20290;-64
2023/06/27 05:22:46;;;;;;;6.38;1.20;;;25.60;44.40;;;;;;5022182;28;20121;-63
2023/06/27 05:25:12;;;;;;;3.50;1.40;;;25.60;44.40;;;;;;5023472;28;20044;-64
2023/06/27 05:27:38;;;;;;;3.78;1.45;;;25.60;44.50;;;;;;5023221;28;20037;-63
2023/06/27 05:30:05;;;;;;;4.00;1.45;;;25.60;44.50;;;;;;5023759;28;20389;-64
2023/06/27 05:32:31;;;;;;;4.03;1.52;;;25.60;44.60;;;;;;5021168;28;20103;-64
2023/06/27 05:34:57;;;;;;;4.45;1.60;;;25.60;44.70;;;;;;5023416;28;20058;-64
2023/06/27 05:37:22;;;;;;;3.55;1.10;;;25.60;44.70;;;;;;5023858;28;20030;-63
2023/06/27 05:39:48;;;;;;;4.45;1.40;;;25.60;44.70;;;;;;5024423;28;20038;-64
2023/06/27 05:42:14;;;;;;;4.85;1.30;;;25.60;44.80;;;;;;5025219;28;20041;-64
2023/06/27 05:44:40;;;;;;;4.22;1.15;;;25.60;44.80;;;;;;5017310;28;20144;-64
2023/06/27 05:47:06;;;;;;;4.57;1.40;;;25.60;44.80;;;;;;5023369;28;20083;-65
2023/06/27 05:49:32;;;;;;;3.28;1.23;;;25.60;44.90;;;;;;5023312;28;20057;-64
2023/06/27 05:51:58;;;;;;;6.80;1.52;;;25.60;45.00;;;;;;5024085;28;20372;-63
2023/06/27 05:54:23;;;;;;;5.10;1.33;;;25.60;45.00;;;;;;5021933;28;20047;-63
2023/06/27 05:56:49;;;;;;;4.07;1.58;;;25.60;45.10;;;;;;5024379;28;20060;-64
2023/06/27 05:59:15;;;;;;;5.07;1.63;;;25.60;45.10;;;;;;5022088;28;20354;-63
2023/06/27 06:01:41;;;;;;;4.40;1.42;;;25.60;45.20;;;;;;5018689;28;20079;-65
2023/06/27 06:04:08;;;;;;;3.83;1.23;;;25.60;45.20;;;;;;5019348;28;20105;-64
2023/06/27 06:06:37;;;;;;;5.05;1.83;;;25.60;45.30;;;;;;5022281;28;20045;-64
2023/06/27 06:09:06;;;;;;;6.05;1.30;;;25.60;45.40;;;;;;5021626;28;20060;-64
2023/06/27 06:11:34;;;;;;;5.47;1.42;;;25.60;45.40;;;;;;5014633;28;20030;-63
2023/06/27 06:14:04;;;;;;;5.53;1.35;;;25.60;45.50;;;;;;5020932;28;20100;-63
2023/06/27 06:16:33;;;;;;;5.35;1.80;;;25.60;45.50;;;;;;5023201;28;20040;-64
2023/06/27 06:19:00;;;;;;;4.82;1.60;;;25.60;45.60;;;;;;5017763;28;20346;-64
2023/06/27 06:21:27;;;;;;;5.15;1.45;;;25.60;45.70;;;;;;5016133;28;20038;-63
2023/06/27 06:23:53;;;;;;;4.55;1.40;;;25.60;45.70;;;;;;5022349;28;20041;-62
2023/06/27 06:26:19;;;;;;;7.28;1.92;;;25.60;45.80;;;;;;5014870;28;20033;-64
2023/06/27 06:28:46;;;;;;;6.43;2.15;;;25.60;45.90;;;;;;5021134;28;20069;-63
2023/06/27 06:31:14;;;;;;;7.60;2.13;;;25.60;46.00;;;;;;5016040;28;20594;-63
2023/06/27 06:33:40;;;;;;;8.70;2.13;;;25.60;46.10;;;;;;5022197;28;20245;-64
2023/06/27 06:36:07;;;;;;;4.93;1.90;;;25.60;46.10;;;;;;5021935;28;20033;-63
2023/06/27 06:38:33;;;;;;;7.65;2.13;;;25.60;46.20;;;;;;5022546;28;20120;-64
2023/06/27 06:40:59;;;;;;;9.50;2.20;;;25.60;46.20;;;;;;5026035;28;20356;-63
2023/06/27 06:43:26;;;;;;;7.78;2.70;;;25.60;46.20;;;;;;5022112;28;20486;-64
2023/06/27 06:45:52;;;;;;;5.18;1.67;;;25.60;46.20;;;;;;5026450;28;20044;-64
2023/06/27 06:48:22;;;;;;;5.43;2.13;;;25.60;46.20;;;;;;5041387;28;20441;-63
2023/06/27 06:50:52;;;;;;;7.05;2.10;;;25.60;46.30;;;;;;5051843;28;20073;-63
2023/06/27 06:53:19;;;;;;;6.60;2.28;;;25.60;46.30;;;;;;5051160;28;20037;-64
2023/06/27 06:55:46;;;;;;;7.47;2.40;;;25.60;46.40;;;;;;5051708;28;20034;-64
2023/06/27 06:58:12;;;;;;;6.00;1.77;;;25.60;46.30;;;;;;5051900;28;20234;-63
2023/06/27 07:00:38;;;;;;;4.95;1.90;;;25.60;46.30;;;;;;5051758;28;20025;-64
2023/06/27 07:03:08;;;;;;;3.22;1.30;;;25.70;46.30;;;;;;5050880;28;20032;-64
2023/06/27 07:05:35;;;;;;;4.47;1.60;;;25.70;46.10;;;;;;5051534;28;20166;-63
2023/06/27 07:08:03;;;;;;;3.28;1.58;;;25.70;46.00;;;;;;5048510;28;20101;-63
2023/06/27 07:10:30;;;;;;;6.95;1.80;;;25.80;46.00;;;;;;5051632;28;20033;-64
2023/06/27 07:12:56;;;;;;;6.45;1.73;;;25.70;45.90;;;;;;5051278;28;20440;-64
2023/06/27 07:15:23;;;;;;;3.85;1.45;;;25.80;45.80;;;;;;5051646;28;20029;-63
2023/06/27 07:17:53;;;;;;;3.42;1.60;;;25.80;45.70;;;;;;5023257;28;20102;-63
2023/06/27 07:20:22;;;;;;;4.28;1.65;;;25.80;45.60;;;;;;5038058;28;20377;-63
2023/06/27 07:22:52;;;;;;;2.88;1.15;;;25.80;45.40;;;;;;5050932;28;20040;-64
2023/06/27 07:25:18;;;;;;;2.33;1.10;;;25.90;45.20;;;;;;5049111;28;20044;-63
2023/06/27 07:27:44;;;;;;;3.00;1.10;;;25.90;45.00;;;;;;5024225;28;20313;-63
2023/06/27 07:30:11;;;;;;;3.55;1.10;;;25.90;44.80;;;;;;5031225;28;20040;-64
2023/06/27 07:32:37;;;;;;;3.15;1.20;;;25.90;44.50;;;;;;5044342;28;20044;-65
2023/06/27 07:35:06;;;;;;;3.47;1.08;;;26.00;44.50;;;;;;5024328;28;20108;-64
2023/06/27 07:37:32;;;;;;;2.38;1.13;;;26.00;44.40;;;;;;5039678;28;20055;-65
2023/06/27 07:39:58;;;;;;;4.15;1.00;;;26.00;44.40;;;;;;5042815;28;20029;-64
2023/06/27 07:42:27;;;;;;;1.67;0.77;;;26.00;44.30;;;;;;5042504;28;20045;-66
2023/06/27 07:44:53;;;;;;;3.17;1.02;;;26.00;44.20;;;;;;5040391;28;20104;-65
2023/06/27 07:47:19;;;;;;;3.88;1.48;;;26.10;44.30;;;;;;5030865;28;20188;-65
2023/06/27 07:49:45;;;;;;;3.35;1.00;;;26.00;44.20;;;;;;5035911;28;20076;-65
2023/06/27 07:52:12;;;;;;;3.75;1.20;;;26.10;44.20;;;;;;5045284;28;20475;-64
2023/06/27 07:54:38;;;;;;;2.42;1.00;;;26.10;44.70;;;;;;5022302;28;20385;-65
2023/06/27 07:57:05;;;;;;;1.77;0.98;;;26.10;44.00;;;;;;5050800;28;20097;-65
2023/06/27 07:59:31;;;;;;;2.72;0.90;;;26.10;43.80;;;;;;5041950;28;20468;-64
2023/06/27 08:01:57;;;;;;;2.05;0.73;;;26.10;43.80;;;;;;5038550;28;20085;-64
2023/06/27 08:04:23;;;;;;;2.70;1.13;;;26.10;43.60;;;;;;5030984;28;20037;-65
2023/06/27 08:06:49;;;;;;;2.00;0.82;;;26.20;43.40;;;;;;5043191;28;20036;-64
2023/06/27 08:09:15;;;;;;;1.55;0.70;;;26.20;43.10;;;;;;5046819;28;20036;-65
2023/06/27 08:11:41;;;;;;;2.05;0.68;;;26.20;42.70;;;;;;5042059;28;20094;-64
2023/06/27 08:14:06;;;;;;;2.17;0.90;;;26.20;42.50;;;;;;5016372;28;20022;-65
2023/06/27 08:16:35;;;;;;;2.42;0.85;;;26.20;42.40;;;;;;5022814;28;20116;-64
2023/06/27 08:19:01;;;;;;;2.90;0.70;;;26.20;42.30;;;;;;5041349;28;20036;-65
2023/06/27 08:21:27;;;;;;;2.38;1.00;;;26.20;42.40;;;;;;5041480;28;20041;-64
2023/06/27 08:23:53;;;;;;;2.95;0.80;;;26.20;42.30;;;;;;5024474;28;20080;-65
2023/06/27 08:26:19;;;;;;;0.98;0.70;;;26.20;42.20;;;;;;5042704;28;20055;-64
2023/06/27 08:28:45;;;;;;;1.40;0.70;;;26.20;42.20;;;;;;5020605;28;20055;-65
2023/06/27 08:31:12;;;;;;;3.10;1.08;;;26.20;42.00;;;;;;5045802;28;20033;-64
2023/06/27 08:33:39;;;;;;;4.63;0.98;;;26.20;41.90;;;;;;5044202;28;20112;-65
2023/06/27 08:36:06;;;;;;;1.77;0.70;;;26.20;41.80;;;;;;5044550;28;20103;-64
2023/06/27 08:38:31;;;;;;;0.88;0.50;;;26.20;41.80;;;;;;5043772;28;20074;-64
2023/06/27 08:40:58;;;;;;;2.70;0.75;;;26.20;41.70;;;;;;5025451;28;20111;-64
2023/06/27 08:43:24;;;;;;;2.38;1.00;;;26.20;41.60;;;;;;5044242;28;20052;-65
2023/06/27 08:45:54;;;;;;;1.80;0.80;;;26.20;41.60;;;;;;5043766;28;20098;-65
2023/06/27 08:48:20;;;;;;;2.08;0.60;;;26.20;41.50;;;;;;5044196;28;20056;-64
2023/06/27 08:50:49;;;;;;;1.48;0.60;;;26.20;41.40;;;;;;5043285;28;20095;-64
2023/06/27 08:53:17;;;;;;;2.15;0.70;;;26.20;41.40;;;;;;5026707;28;20025;-64
2023/06/27 08:56:12;;;;;;;1.20;0.52;;;26.20;41.30;;;;;;5043520;28;20017;-64
2023/06/27 08:59:03;;;;;;;1.42;0.60;;;26.20;41.20;;;;;;5044088;28;20029;-65
2023/06/27 09:01:34;;;;;;;2.47;0.95;;;26.20;41.10;;;;;;5044350;28;20037;-64
2023/06/27 09:04:01;;;;;;;2.67;0.95;;;26.20;41.10;;;;;;5042536;28;20049;-65
2023/06/27 09:06:28;;;;;;;2.97;0.93;;;26.20;41.00;;;;;;5038101;28;20027;-65
2023/06/27 09:08:55;;;;;;;1.55;0.75;;;26.20;41.00;;;;;;5022898;28;20398;-65
2023/06/27 09:11:21;;;;;;;2.70;1.00;;;26.20;41.00;;;;;;5044116;28;20026;-65
2023/06/27 09:13:47;;;;;;;2.65;0.80;;;26.20;40.90;;;;;;5025987;28;20026;-65
2023/06/27 09:16:14;;;;;;;1.73;0.73;;;26.20;40.90;;;;;;5021086;28;20024;-64
2023/06/27 09:18:40;;;;;;;3.15;0.73;;;26.20;40.90;;;;;;5043284;28;20362;-65
2023/06/27 09:21:06;;;;;;;1.75;0.77;;;26.20;40.90;;;;;;5023741;28;20071;-65
2023/06/27 09:23:32;;;;;;;2.72;0.90;;;26.20;40.80;;;;;;5044819;28;20021;-65
2023/06/27 09:26:12;;;;;;;3.35;0.70;;;26.20;40.80;;;;;;5044774;28;20025;-65
2023/06/27 09:28:52;;;;;;;2.50;0.90;;;26.20;40.70;;;;;;5042715;28;20446;-65
2023/06/27 09:31:19;;;;;;;2.00;0.55;;;26.20;40.60;;;;;;5043682;28;20025;-64
2023/06/27 09:33:47;;;;;;;1.45;0.50;;;26.20;40.60;;;;;;5041708;28;20043;-64
2023/06/27 09:36:29;;;;;;;1.40;0.65;;;26.20;40.50;;;;;;5043350;28;20033;-66
2023/06/27 09:38:56;;;;;;;1.80;0.60;;;26.20;40.30;;;;;;5044732;28;20115;-64
2023/06/27 09:41:22;;;;;;;0.95;0.50;;;26.20;40.30;;;;;;5040290;28;20211;-64
2023/06/27 09:43:51;;;;;;;1.77;0.50;;;26.20;40.10;;;;;;5041494;28;20444;-64
2023/06/27 09:46:20;;;;;;;1.52;0.50;;;26.20;39.90;;;;;;5042506;28;20459;-65
2023/06/27 09:48:46;;;;;;;2.95;0.70;;;26.20;39.80;;;;;;5043593;28;20082;-64
2023/06/27 09:51:12;;;;;;;1.63;0.50;;;26.20;39.70;;;;;;5045353;28;20029;-65
2023/06/27 09:53:38;;;;;;;1.67;0.60;;;26.20;39.60;;;;;;5043011;28;20025;-65
2023/06/27 09:56:04;;;;;;;2.88;0.63;;;26.20;39.50;;;;;;5044692;28;20033;-64
2023/06/27 09:58:31;;;;;;;1.55;0.60;;;26.20;39.40;;;;;;5038354;28;20026;-64
2023/06/27 10:01:07;;;;;;;2.42;0.60;;;26.20;39.30;;;;;;5038901;28;20049;-64
2023/06/27 10:03:34;;;;;;;2.55;0.80;;;26.20;39.20;;;;;;5024866;28;20408;-65
2023/06/27 10:06:02;;;;;;;1.23;0.50;;;26.20;39.20;;;;;;5040494;28;20408;-64
2023/06/27 10:08:28;;;;;;;1.00;0.63;;;26.20;39.00;;;;;;5027415;28;20374;-65
2023/06/27 10:10:57;;;;;;;1.55;1.05;;;26.20;38.90;;;;;;5043758;28;20336;-61
2023/06/27 10:13:25;;;;;;;2.17;0.75;;;26.20;38.80;;;;;;5021322;28;20133;-65
2023/06/27 10:15:51;;;;;;;1.40;0.80;;;26.20;38.70;;;;;;5042275;28;20037;-64
2023/06/27 10:18:17;;;;;;;1.48;0.90;;;26.20;38.60;;;;;;5037585;28;20120;-65
2023/06/27 10:20:43;;;;;;;1.98;0.90;;;26.30;38.70;;;;;;5042117;28;20389;-64
2023/06/27 10:23:09;;;;;;;2.03;0.73;;;26.30;38.70;;;;;;5041763;28;20154;-64
2023/06/27 10:25:37;;;;;;;2.25;0.60;;;26.30;38.70;;;;;;5017722;28;20036;-64
2023/06/27 10:28:08;;;;;;;1.30;0.60;;;26.30;38.70;;;;;;5043713;28;20029;-64
2023/06/27 10:30:44;;;;;;;3.08;0.68;;;26.30;38.60;;;;;;5048182;28;20140;-64
2023/06/27 10:33:22;;;;;;;1.77;0.60;;;26.30;38.60;;;;;;5040554;28;20391;-64
2023/06/27 10:35:56;;;;;;;1.75;0.70;;;26.30;38.60;;;;;;5041874;28;20070;-65
2023/06/27 10:38:23;;;;;;;0.80;0.60;;;26.30;38.60;;;;;;5039928;28;20433;-64
2023/06/27 10:40:58;;;;;;;2.55;0.70;;;26.30;38.60;;;;;;5025274;28;20128;-66
2023/06/27 10:43:48;;;;;;;3.17;0.70;;;26.40;38.60;;;;;;5042475;28;20049;-66
2023/06/27 10:46:23;;;;;;;1.33;0.50;;;26.30;38.50;;;;;;5042119;28;20049;-64
2023/06/27 10:48:56;;;;;;;2.92;0.50;;;26.40;38.50;;;;;;5042043;28;20179;-65
2023/06/27 10:51:23;;;;;;;3.38;0.80;;;26.40;38.50;;;;;;5032925;28;20555;-65
2023/06/27 10:54:16;;;;;;;4.63;0.60;;;26.40;38.50;;;;;;5025458;28;20345;-65
2023/06/27 10:56:43;;;;;;;4.32;0.70;;;26.40;38.40;;;;;;5038999;28;20041;-69
2023/06/27 10:59:19;;;;;;;3.63;0.60;;;26.40;38.40;;;;;;5039722;28;20093;-69
2023/06/27 11:01:58;;;;;;;1.77;0.57;;;26.40;38.30;;;;;;5023677;28;20132;-70
2023/06/27 11:04:39;;;;;;;3.63;0.77;;;26.40;38.20;;;;;;5042527;28;20033;-69
2023/06/27 11:07:12;;;;;;;1.35;0.63;;;26.40;38.10;;;;;;5039644;28;20079;-64
2023/06/27 11:09:48;;;;;;;1.00;0.50;;;26.50;38.10;;;;;;5037053;28;20031;-68
2023/06/27 11:12:15;;;;;;;3.78;0.70;;;26.60;38.20;;;;;;5039464;28;20102;-67
2023/06/27 11:14:43;;;;;;;1.75;0.80;;;26.70;38.10;;;;;;5041963;28;20048;-62
2023/06/27 11:17:10;;;;;;;1.23;0.50;;;26.80;38.20;;;;;;5044079;28;20040;-68
2023/06/27 11:19:39;;;;;;;1.17;0.40;;;26.90;38.10;;;;;;5044637;28;20452;-66
2023/06/27 11:22:06;;;;;;;1.10;0.45;;;27.00;38.50;;;;;;5045868;28;20037;-69
2023/06/27 11:24:33;;;;;;;1.63;0.70;;;27.10;37.70;;;;;;5043051;28;20035;-70
2023/06/27 11:27:00;;;;;;;1.63;0.80;;;27.30;37.50;;;;;;5033605;28;20112;-69
2023/06/27 11:29:27;;;;;;;0.82;0.43;;;27.40;37.30;;;;;;5046662;28;20389;-68
2023/06/27 11:31:54;;;;;;;2.30;0.80;;;27.50;37.20;;;;;;5032985;28;20052;-67
2023/06/27 11:34:21;;;;;;;2.20;0.80;;;27.60;37.10;;;;;;5036958;28;20394;-69
2023/06/27 11:36:47;;;;;;;1.90;0.40;;;27.70;37.10;;;;;;5037312;28;20428;-67
2023/06/27 11:39:14;;;;;;;0.85;0.40;;;27.80;37.10;;;;;;5044063;28;20123;-67
2023/06/27 11:41:41;;;;;;;1.85;0.80;;;27.90;37.00;;;;;;5044609;28;20052;-69
2023/06/27 11:44:15;;;;;;;1.45;0.50;;;28.00;36.80;;;;;;5006004;28;20054;-66
2023/06/27 11:46:51;;;;;;;1.92;0.60;;;28.00;36.50;;;;;;5003977;28;20470;-66
2023/06/27 11:49:21;;;;;;;1.02;0.40;;;28.10;36.40;;;;;;4999864;28;20018;-66
2023/06/27 11:51:47;;;;;;;1.30;0.38;;;28.10;36.10;;;;;;5004838;28;20136;-66
2023/06/27 11:54:17;;;;;;;3.13;0.60;;;28.10;36.00;;;;;;5004216;28;20117;-69
2023/06/27 11:56:43;;;;;;;5.10;0.68;;;28.20;35.90;;;;;;5000281;28;20022;-68
2023/06/27 11:59:09;;;;;;;3.85;0.60;;;28.20;35.80;;;;;;5001156;28;20401;-69
2023/06/27 12:01:42;;;;;;;2.75;0.60;;;28.30;35.80;;;;;;4997877;28;20092;-68
2023/06/27 12:04:18;;;;;;;2.08;0.68;;;28.30;35.70;;;;;;4998224;28;20111;-70
2023/06/27 12:06:46;;;;;;;2.30;0.77;;;28.30;35.70;;;;;;5002213;28;20057;-72
2023/06/27 12:09:24;;;;;;;4.43;0.80;;;28.30;35.60;;;;;;4980403;28;20041;-69
2023/06/27 12:11:56;;;;;;;3.50;0.80;;;28.40;35.40;;;;;;5000775;28;20034;-70
2023/06/27 12:14:22;;;;;;;1.67;0.50;;;28.40;35.20;;;;;;5016459;28;20113;-70
2023/06/27 12:16:48;;;;;;;2.72;0.88;;;28.40;35.10;;;;;;4998334;28;20026;-70
2023/06/27 12:19:18;;;;;;;1.75;0.60;;;28.40;34.90;;;;;;5002027;28;20025;-67
2023/06/27 12:21:44;;;;;;;2.28;0.60;;;28.40;34.80;;;;;;5001028;28;20377;-70
2023/06/27 12:24:10;;;;;;;2.35;0.80;;;28.40;34.70;;;;;;5000970;28;20034;-70
2023/06/27 12:26:36;;;;;;;1.30;0.50;;;28.40;34.60;;;;;;5000950;28;20148;-64
2023/06/27 12:29:06;;;;;;;2.67;0.75;;;28.50;34.60;;;;;;5006292;28;20060;-69
2023/06/27 12:31:41;;;;;;;1.70;0.50;;;28.50;34.60;;;;;;4999984;28;20486;-63
2023/06/27 12:34:08;;;;;;;1.70;0.50;;;28.50;34.50;;;;;;5003637;28;20022;-69
2023/06/27 12:36:34;;;;;;;0.60;0.40;;;28.60;34.50;;;;;;5000066;28;20026;-70
2023/06/27 12:39:01;;;;;;;1.20;0.60;;;28.70;34.50;;;;;;4999235;28;20037;-70
2023/06/27 12:41:28;;;;;;;1.75;0.50;;;28.70;34.50;;;;;;5002020;28;20433;-69
2023/06/27 12:43:54;;;;;;;2.50;0.60;;;28.80;34.60;;;;;;5006424;28;20053;-69
2023/06/27 12:46:20;;;;;;;1.92;0.60;;;28.80;34.60;;;;;;5021963;28;20021;-69
2023/06/27 12:48:47;;;;;;;0.70;0.50;;;28.80;35.20;;;;;;5020600;28;20041;-69
2023/06/27 12:51:13;;;;;;;0.80;0.50;;;28.90;35.20;;;;;;5020414;28;20029;-70
2023/06/27 12:53:39;;;;;;;1.08;0.50;;;28.90;34.50;;;;;;5023679;28;20017;-68